DAL435 PHLI-KLAX
Flight info
| Callsign | DAL435 |
|---|---|
| Flight time | N/A |
| Altitude | 31000 |
| Route | 215850N1592027W 215859N1592017W 215907N1592008W 215924N1591949W 215952N1591914W 214408N1585239W 212057N1581354W 211935N1575453W 211450N1573603W MKK 210004N1552222W FITES R578 FOOTS ELKEY EXERT 335827N1183617W 340358N1182421W 340406N1182051W 340415N1181610W 340300N1181213W 340132N1180733W 340102N1180632W 340018N1180630W 335930N1180633W 335842N1180705W 335804N1180932W 335734N1181653W 335714N1182155W 335711N1182300W 335709N1182346W 335708N1182403W 335708N1182408W 335706N1182417W 335705N1182430W |
| Aircraft | A21N/M-SDE2E3FGHIRWXY/LB1 |
Departure
| Time | 2026-04-25 08:17 |
|---|---|
| Airport | Lihue Airport (PHLI) |
Arrival
| Time | N/A |
|---|---|
| Airport | Los Angeles International Airport (KLAX) |
| Time | Latitude | Longitude | Altitude | Speed | Heading |
|---|---|---|---|---|---|
| 2026-04-25 07:55 | 21.97886 | -159.34713 | 153 ft | 0 kts | 314° |
| 2026-04-25 08:07 | 21.97882 | -159.34708 | 153 ft | 2 kts | 316° |
| 2026-04-25 08:07 | 21.97868 | -159.34694 | 153 ft | 3 kts | 326° |
| 2026-04-25 08:08 | 21.97853 | -159.34683 | 153 ft | 3 kts | 341° |
| 2026-04-25 08:08 | 21.97835 | -159.34678 | 153 ft | 3 kts | 11° |
| 2026-04-25 08:08 | 21.97821 | -159.34681 | 153 ft | 1 kts | 44° |
| 2026-04-25 08:08 | 21.97820 | -159.34682 | 153 ft | 1 kts | 45° |
| 2026-04-25 08:14 | 21.97820 | -159.34676 | 153 ft | 2 kts | 69° |
| 2026-04-25 08:14 | 21.97794 | -159.34656 | 152 ft | 8 kts | 153° |
| 2026-04-25 08:14 | 21.97722 | -159.34609 | 143 ft | 14 kts | 163° |
| 2026-04-25 08:14 | 21.97652 | -159.34665 | 146 ft | 12 kts | 225° |
| 2026-04-25 08:15 | 21.97594 | -159.34727 | 151 ft | 11 kts | 224° |
| 2026-04-25 08:15 | 21.97556 | -159.34767 | 154 ft | 12 kts | 225° |
| 2026-04-25 08:15 | 21.97468 | -159.34860 | 154 ft | 16 kts | 223° |
| 2026-04-25 08:15 | 21.97391 | -159.34933 | 153 ft | 12 kts | 210° |
| 2026-04-25 08:16 | 21.97363 | -159.34935 | 153 ft | 0 kts | 171° |
| 2026-04-25 08:16 | 21.97359 | -159.34934 | 153 ft | 2 kts | 168° |
| 2026-04-25 08:16 | 21.97323 | -159.34858 | 152 ft | 16 kts | 68° |
| 2026-04-25 08:17 | 21.97492 | -159.34664 | 152 ft | 67 kts | 45° |
| 2026-04-25 08:17 | 21.97994 | -159.34132 | 119 ft | 134 kts | 45° |
| 2026-04-25 08:17 | 21.98776 | -159.33312 | 431 ft | 169 kts | 43° |
| 2026-04-25 08:17 | 21.99716 | -159.32394 | 929 ft | 201 kts | 40° |
| 2026-04-25 08:18 | 22.00893 | -159.31355 | 1443 ft | 230 kts | 46° |
| 2026-04-25 08:18 | 22.01890 | -159.29959 | 2463 ft | 240 kts | 62° |
| 2026-04-25 08:18 | 22.02405 | -159.28254 | 3674 ft | 242 kts | 83° |
| 2026-04-25 08:18 | 22.02120 | -159.26421 | 4686 ft | 256 kts | 115° |
| 2026-04-25 08:19 | 22.00972 | -159.25008 | 5687 ft | 270 kts | 144° |
| 2026-04-25 08:19 | 21.99255 | -159.24037 | 6263 ft | 298 kts | 148° |
| 2026-04-25 08:19 | 21.97516 | -159.22448 | 5549 ft | 362 kts | 125° |
| 2026-04-25 08:19 | 21.96221 | -159.19860 | 4684 ft | 426 kts | 107° |
| 2026-04-25 08:20 | 21.95793 | -159.16628 | 5087 ft | 451 kts | 89° |
| 2026-04-25 08:20 | 21.95649 | -159.13024 | 4291 ft | 504 kts | 92° |
| 2026-04-25 08:20 | 21.95335 | -159.09175 | 4236 ft | 519 kts | 94° |
| 2026-04-25 08:20 | 21.94962 | -159.05394 | 6597 ft | 493 kts | 95° |
| 2026-04-25 08:21 | 21.94590 | -159.01856 | 9513 ft | 457 kts | 95° |
| 2026-04-25 08:21 | 21.94226 | -158.98538 | 11803 ft | 436 kts | 95° |
| 2026-04-25 08:21 | 21.93879 | -158.95352 | 13719 ft | 420 kts | 95° |
| 2026-04-25 08:21 | 21.93542 | -158.92251 | 14965 ft | 420 kts | 95° |
| 2026-04-25 08:22 | 21.93198 | -158.89060 | 15367 ft | 439 kts | 95° |
| 2026-04-25 08:22 | 21.92839 | -158.85721 | 15728 ft | 458 kts | 95° |
| 2026-04-25 08:22 | 21.92467 | -158.82239 | 15957 ft | 479 kts | 95° |
| 2026-04-25 08:22 | 21.92064 | -158.78578 | 16070 ft | 502 kts | 97° |
| 2026-04-25 08:23 | 21.91460 | -158.74837 | 16103 ft | 526 kts | 99° |
| 2026-04-25 08:23 | 21.90795 | -158.70971 | 16119 ft | 529 kts | 99° |
| 2026-04-25 08:23 | 21.90099 | -158.67000 | 16120 ft | 547 kts | 100° |
| 2026-04-25 08:23 | 21.89386 | -158.62965 | 16118 ft | 548 kts | 100° |
| 2026-04-25 08:24 | 21.88670 | -158.58928 | 16119 ft | 548 kts | 100° |
| 2026-04-25 08:24 | 21.87956 | -158.54904 | 16119 ft | 547 kts | 100° |
| 2026-04-25 08:24 | 21.87243 | -158.50889 | 16631 ft | 538 kts | 100° |
| 2026-04-25 08:24 | 21.86555 | -158.47021 | 18662 ft | 515 kts | 100° |
| 2026-04-25 08:25 | 21.85891 | -158.43301 | 20424 ft | 495 kts | 100° |
| 2026-04-25 08:25 | 21.85249 | -158.39710 | 21895 ft | 486 kts | 100° |
| 2026-04-25 08:25 | 21.84606 | -158.36106 | 22407 ft | 496 kts | 100° |
| 2026-04-25 08:25 | 21.83954 | -158.32458 | 22796 ft | 507 kts | 100° |
| 2026-04-25 08:26 | 21.83279 | -158.28696 | 23184 ft | 517 kts | 100° |
| 2026-04-25 08:26 | 21.82593 | -158.24877 | 23580 ft | 521 kts | 100° |
| 2026-04-25 08:26 | 21.81906 | -158.21051 | 23929 ft | 520 kts | 100° |
| 2026-04-25 08:26 | 21.81219 | -158.17238 | 24262 ft | 518 kts | 100° |
| 2026-04-25 08:27 | 21.80534 | -158.13431 | 24605 ft | 516 kts | 100° |
| 2026-04-25 08:27 | 21.79851 | -158.09648 | 24946 ft | 515 kts | 100° |
| 2026-04-25 08:27 | 21.79169 | -158.05877 | 25295 ft | 513 kts | 100° |
| 2026-04-25 08:27 | 21.78488 | -158.02108 | 25636 ft | 512 kts | 99° |
| 2026-04-25 08:28 | 21.77808 | -157.98357 | 25998 ft | 510 kts | 99° |
| 2026-04-25 08:28 | 21.77128 | -157.94614 | 26354 ft | 508 kts | 99° |
| 2026-04-25 08:28 | 21.76492 | -157.91104 | 26695 ft | 507 kts | 99° |
| 2026-04-25 08:28 | 21.75824 | -157.87434 | 27056 ft | 506 kts | 99° |
| 2026-04-25 08:29 | 21.75147 | -157.83718 | 27421 ft | 505 kts | 99° |
| 2026-04-25 08:29 | 21.74470 | -157.80003 | 27805 ft | 504 kts | 99° |
| 2026-04-25 08:29 | 21.73796 | -157.76313 | 28187 ft | 503 kts | 99° |
| 2026-04-25 08:29 | 21.73121 | -157.72626 | 28575 ft | 501 kts | 99° |
| 2026-04-25 08:30 | 21.72448 | -157.68946 | 28975 ft | 500 kts | 99° |
| 2026-04-25 08:30 | 21.71776 | -157.65279 | 29371 ft | 499 kts | 99° |
| 2026-04-25 08:30 | 21.71104 | -157.61622 | 29774 ft | 498 kts | 99° |
| 2026-04-25 08:30 | 21.70434 | -157.57972 | 30188 ft | 496 kts | 100° |
| 2026-04-25 08:31 | 21.69764 | -157.54338 | 30539 ft | 495 kts | 99° |
| 2026-04-25 08:31 | 21.69095 | -157.50706 | 30837 ft | 496 kts | 99° |
| 2026-04-25 08:31 | 21.68422 | -157.47057 | 30978 ft | 497 kts | 99° |
| 2026-04-25 08:32 | 21.67085 | -157.39823 | 31085 ft | 497 kts | 100° |
| 2026-04-25 08:32 | 21.65919 | -157.33535 | 31093 ft | 498 kts | 100° |
| 2026-04-25 08:33 | 21.64564 | -157.26238 | 31101 ft | 497 kts | 100° |
| 2026-04-25 08:33 | 21.63240 | -157.19125 | 31105 ft | 498 kts | 100° |
| 2026-04-25 08:34 | 21.61878 | -157.11829 | 31109 ft | 497 kts | 100° |
| 2026-04-25 08:34 | 21.60513 | -157.04536 | 31108 ft | 497 kts | 100° |
| 2026-04-25 08:35 | 21.59145 | -156.97248 | 31115 ft | 498 kts | 100° |
| 2026-04-25 08:35 | 21.57774 | -156.89954 | 31118 ft | 498 kts | 100° |
| 2026-04-25 08:36 | 21.56395 | -156.82645 | 31113 ft | 498 kts | 100° |
| 2026-04-25 08:36 | 21.55024 | -156.75387 | 31112 ft | 498 kts | 100° |
| 2026-04-25 08:37 | 21.53640 | -156.68087 | 31112 ft | 498 kts | 100° |
| 2026-04-25 08:37 | 21.52253 | -156.60783 | 31116 ft | 499 kts | 100° |
| 2026-04-25 08:38 | 21.50862 | -156.53479 | 31114 ft | 499 kts | 100° |
| 2026-04-25 08:38 | 21.49469 | -156.46186 | 31110 ft | 499 kts | 100° |
| 2026-04-25 08:39 | 21.48070 | -156.38876 | 31112 ft | 499 kts | 100° |
| 2026-04-25 08:39 | 21.46678 | -156.31613 | 31114 ft | 500 kts | 100° |
| 2026-04-25 08:40 | 21.45271 | -156.24305 | 31116 ft | 500 kts | 100° |
| 2026-04-25 08:40 | 21.43863 | -156.16998 | 31118 ft | 500 kts | 101° |
| 2026-04-25 08:41 | 21.42448 | -156.09675 | 31109 ft | 500 kts | 101° |
| 2026-04-25 08:41 | 21.41030 | -156.02359 | 31109 ft | 501 kts | 101° |
| 2026-04-25 08:42 | 21.39617 | -155.95083 | 31112 ft | 501 kts | 101° |
| 2026-04-25 08:42 | 21.38191 | -155.87758 | 31112 ft | 501 kts | 101° |
| 2026-04-25 08:42 | 21.37484 | -155.84133 | 31105 ft | 485 kts | 101° |
| 2026-04-25 08:43 | 21.36808 | -155.80675 | 31106 ft | 463 kts | 101° |
| 2026-04-25 08:43 | 21.36157 | -155.77341 | 31109 ft | 452 kts | 101° |
| 2026-04-25 08:43 | 21.35508 | -155.74018 | 31104 ft | 461 kts | 101° |
| 2026-04-25 08:43 | 21.34839 | -155.70601 | 31108 ft | 474 kts | 101° |
| 2026-04-25 08:44 | 21.34158 | -155.67136 | 31108 ft | 468 kts | 101° |
| 2026-04-25 08:44 | 21.33496 | -155.63766 | 31104 ft | 454 kts | 101° |
| 2026-04-25 08:44 | 21.32849 | -155.60471 | 31107 ft | 450 kts | 101° |
| 2026-04-25 08:45 | 21.31562 | -155.53935 | 31105 ft | 451 kts | 101° |
| 2026-04-25 08:45 | 21.30262 | -155.47347 | 31102 ft | 452 kts | 101° |
| 2026-04-25 08:46 | 21.29161 | -155.41778 | 31108 ft | 453 kts | 101° |
| 2026-04-25 08:46 | 21.27826 | -155.35037 | 31107 ft | 475 kts | 101° |
| 2026-04-25 08:46 | 21.27154 | -155.31646 | 31106 ft | 488 kts | 101° |
| 2026-04-25 08:47 | 21.26694 | -155.29335 | 31102 ft | 497 kts | 101° |
| 2026-04-25 08:47 | 21.25236 | -155.22001 | 31096 ft | 505 kts | 101° |
| 2026-04-25 08:48 | 21.23769 | -155.14648 | 31093 ft | 504 kts | 101° |
| 2026-04-25 08:48 | 21.22297 | -155.07281 | 31093 ft | 505 kts | 101° |
| 2026-04-25 08:49 | 21.20832 | -154.99968 | 31097 ft | 505 kts | 101° |
| 2026-04-25 08:49 | 21.19354 | -154.92605 | 31101 ft | 505 kts | 101° |
| 2026-04-25 08:50 | 21.17870 | -154.85235 | 31093 ft | 506 kts | 101° |
| 2026-04-25 08:50 | 21.16384 | -154.77867 | 31093 ft | 506 kts | 101° |
| 2026-04-25 08:51 | 21.14893 | -154.70496 | 31100 ft | 506 kts | 101° |
| 2026-04-25 08:51 | 21.13398 | -154.63122 | 31099 ft | 506 kts | 101° |
| 2026-04-25 08:52 | 21.11910 | -154.55794 | 31094 ft | 507 kts | 102° |
| 2026-04-25 08:52 | 21.10406 | -154.48412 | 31087 ft | 507 kts | 102° |
| 2026-04-25 08:53 | 21.08900 | -154.41032 | 31093 ft | 508 kts | 102° |
| 2026-04-25 08:53 | 21.07386 | -154.33633 | 31086 ft | 508 kts | 102° |
| 2026-04-25 08:54 | 21.05871 | -154.26243 | 31087 ft | 508 kts | 102° |
| 2026-04-25 08:54 | 21.04351 | -154.18848 | 31090 ft | 509 kts | 102° |
| 2026-04-25 08:55 | 21.02828 | -154.11451 | 31094 ft | 509 kts | 102° |
| 2026-04-25 08:55 | 21.01299 | -154.04051 | 31092 ft | 509 kts | 102° |
| 2026-04-25 08:56 | 20.99768 | -153.96652 | 31083 ft | 509 kts | 102° |
| 2026-04-25 08:56 | 20.98232 | -153.89248 | 31086 ft | 510 kts | 102° |
| 2026-04-25 08:57 | 20.96711 | -153.81930 | 31086 ft | 510 kts | 102° |
| 2026-04-25 08:57 | 20.95167 | -153.74523 | 31081 ft | 510 kts | 102° |
| 2026-04-25 08:58 | 20.93623 | -153.67131 | 31082 ft | 511 kts | 102° |
| 2026-04-25 08:58 | 20.92070 | -153.59711 | 31086 ft | 511 kts | 102° |
| 2026-04-25 08:59 | 20.90512 | -153.52286 | 31078 ft | 511 kts | 102° |
| 2026-04-25 08:59 | 20.88949 | -153.44854 | 31084 ft | 512 kts | 102° |
| 2026-04-25 09:00 | 20.87384 | -153.37425 | 31083 ft | 512 kts | 102° |
| 2026-04-25 09:00 | 20.85814 | -153.29992 | 31077 ft | 512 kts | 102° |
| 2026-04-25 09:01 | 20.84251 | -153.22611 | 31082 ft | 513 kts | 102° |
| 2026-04-25 09:01 | 20.82673 | -153.15175 | 31076 ft | 513 kts | 102° |
| 2026-04-25 09:02 | 20.81241 | -153.08439 | 31070 ft | 513 kts | 102° |
| 2026-04-25 09:02 | 20.79699 | -153.00980 | 31071 ft | 513 kts | 97° |
| 2026-04-25 09:02 | 20.79629 | -152.97244 | 31095 ft | 513 kts | 82° |
| 2026-04-25 09:03 | 20.80092 | -152.94761 | 31104 ft | 513 kts | 72° |
| 2026-04-25 09:03 | 20.82144 | -152.90192 | 31102 ft | 512 kts | 57° |
| 2026-04-25 09:03 | 20.84114 | -152.87019 | 31082 ft | 512 kts | 55° |
| 2026-04-25 09:04 | 20.88091 | -152.80710 | 31068 ft | 511 kts | 56° |
| 2026-04-25 09:04 | 20.91365 | -152.75427 | 31080 ft | 511 kts | 56° |
| 2026-04-25 09:05 | 20.94939 | -152.68859 | 31071 ft | 512 kts | 61° |
| 2026-04-25 09:05 | 20.98285 | -152.62127 | 31071 ft | 512 kts | 62° |
| 2026-04-25 09:06 | 21.01610 | -152.55394 | 31067 ft | 512 kts | 62° |
| 2026-04-25 09:06 | 21.04942 | -152.48640 | 31068 ft | 512 kts | 62° |
| 2026-04-25 09:07 | 21.08270 | -152.41886 | 31069 ft | 513 kts | 62° |
| 2026-04-25 09:07 | 21.11599 | -152.35125 | 31069 ft | 513 kts | 62° |
| 2026-04-25 09:08 | 21.14905 | -152.28400 | 31070 ft | 513 kts | 62° |
| 2026-04-25 09:08 | 21.18233 | -152.21624 | 31070 ft | 513 kts | 62° |
| 2026-04-25 09:09 | 21.21559 | -152.14844 | 31070 ft | 514 kts | 62° |
| 2026-04-25 09:09 | 21.24883 | -152.08059 | 31076 ft | 514 kts | 62° |
| 2026-04-25 09:10 | 21.28118 | -152.01445 | 31078 ft | 514 kts | 62° |
| 2026-04-25 09:10 | 21.31440 | -151.94648 | 31068 ft | 514 kts | 62° |
| 2026-04-25 09:11 | 21.36426 | -151.84427 | 31070 ft | 514 kts | 62° |
| 2026-04-25 09:11 | 21.39725 | -151.77653 | 31068 ft | 514 kts | 62° |
| 2026-04-25 09:12 | 21.43038 | -151.70843 | 31072 ft | 515 kts | 62° |
| 2026-04-25 09:12 | 21.46349 | -151.64028 | 31086 ft | 515 kts | 62° |
| 2026-04-25 09:13 | 21.49657 | -151.57210 | 31074 ft | 515 kts | 62° |
| 2026-04-25 09:13 | 21.52962 | -151.50396 | 31077 ft | 514 kts | 61° |
| 2026-04-25 09:14 | 21.56237 | -151.43547 | 31079 ft | 515 kts | 63° |
| 2026-04-25 09:14 | 21.59451 | -151.36716 | 31079 ft | 515 kts | 63° |
| 2026-04-25 09:15 | 21.62688 | -151.29827 | 31080 ft | 515 kts | 63° |
| 2026-04-25 09:15 | 21.65921 | -151.22940 | 31081 ft | 515 kts | 63° |
| 2026-04-25 09:16 | 21.69127 | -151.16099 | 31077 ft | 515 kts | 63° |
| 2026-04-25 09:16 | 21.72355 | -151.09205 | 31078 ft | 516 kts | 63° |
| 2026-04-25 09:17 | 21.77193 | -150.98854 | 31079 ft | 516 kts | 63° |
| 2026-04-25 09:18 | 21.80397 | -150.91986 | 31081 ft | 516 kts | 63° |
| 2026-04-25 09:18 | 21.83618 | -150.85074 | 31080 ft | 516 kts | 63° |
| 2026-04-25 09:19 | 21.86834 | -150.78164 | 31083 ft | 517 kts | 63° |
| 2026-04-25 09:19 | 21.90055 | -150.71233 | 31083 ft | 517 kts | 63° |
| 2026-04-25 09:20 | 21.93271 | -150.64303 | 31084 ft | 517 kts | 63° |
| 2026-04-25 09:20 | 21.96484 | -150.57372 | 31083 ft | 517 kts | 63° |
| 2026-04-25 09:21 | 21.99695 | -150.50432 | 31083 ft | 517 kts | 63° |
| 2026-04-25 09:21 | 22.02881 | -150.43540 | 31084 ft | 517 kts | 63° |
| 2026-04-25 09:22 | 22.06084 | -150.36600 | 31085 ft | 517 kts | 63° |
| 2026-04-25 09:22 | 22.09289 | -150.29650 | 31085 ft | 517 kts | 63° |
| 2026-04-25 09:23 | 22.12486 | -150.22702 | 31086 ft | 517 kts | 63° |
| 2026-04-25 09:23 | 22.15680 | -150.15754 | 31086 ft | 517 kts | 63° |
| 2026-04-25 09:24 | 22.18874 | -150.08798 | 31088 ft | 517 kts | 63° |
| 2026-04-25 09:24 | 22.22060 | -150.01847 | 31083 ft | 517 kts | 63° |
| 2026-04-25 09:25 | 22.25224 | -149.94936 | 31082 ft | 517 kts | 63° |
| 2026-04-25 09:25 | 22.28407 | -149.87974 | 31083 ft | 517 kts | 63° |
| 2026-04-25 09:26 | 22.31586 | -149.81010 | 31088 ft | 517 kts | 63° |
| 2026-04-25 09:26 | 22.34765 | -149.74036 | 31085 ft | 517 kts | 63° |
| 2026-04-25 09:27 | 22.37937 | -149.67070 | 31089 ft | 517 kts | 63° |
| 2026-04-25 09:27 | 22.41090 | -149.60135 | 31089 ft | 517 kts | 63° |
| 2026-04-25 09:28 | 22.44259 | -149.53154 | 31087 ft | 517 kts | 63° |
| 2026-04-25 09:28 | 22.47420 | -149.46181 | 31086 ft | 517 kts | 63° |
| 2026-04-25 09:29 | 22.50584 | -149.39193 | 31087 ft | 517 kts | 63° |
| 2026-04-25 09:29 | 22.53745 | -149.32201 | 31087 ft | 517 kts | 63° |
| 2026-04-25 09:30 | 22.56878 | -149.25261 | 31088 ft | 516 kts | 63° |
| 2026-04-25 09:30 | 22.60028 | -149.18274 | 31086 ft | 516 kts | 63° |
| 2026-04-25 09:31 | 22.63170 | -149.11294 | 31089 ft | 516 kts | 63° |
| 2026-04-25 09:31 | 22.66310 | -149.04308 | 31086 ft | 516 kts | 63° |
| 2026-04-25 09:32 | 22.69448 | -148.97318 | 31088 ft | 515 kts | 63° |
| 2026-04-25 09:32 | 22.72578 | -148.90336 | 31090 ft | 515 kts | 63° |
| 2026-04-25 09:33 | 22.75709 | -148.83339 | 31086 ft | 515 kts | 63° |
| 2026-04-25 09:33 | 22.78820 | -148.76382 | 31088 ft | 515 kts | 63° |
| 2026-04-25 09:34 | 22.81943 | -148.69382 | 31087 ft | 515 kts | 63° |
| 2026-04-25 09:34 | 22.85065 | -148.62379 | 31091 ft | 515 kts | 63° |
| 2026-04-25 09:35 | 22.88163 | -148.55417 | 31088 ft | 515 kts | 63° |
| 2026-04-25 09:35 | 22.91278 | -148.48407 | 31086 ft | 515 kts | 63° |
| 2026-04-25 09:36 | 22.94388 | -148.41400 | 31088 ft | 515 kts | 63° |
| 2026-04-25 09:36 | 22.97497 | -148.34384 | 31089 ft | 515 kts | 63° |
| 2026-04-25 09:37 | 23.00600 | -148.27371 | 31092 ft | 515 kts | 63° |
| 2026-04-25 09:37 | 23.03701 | -148.20353 | 31089 ft | 515 kts | 63° |
| 2026-04-25 09:38 | 23.06798 | -148.13333 | 31093 ft | 515 kts | 63° |
| 2026-04-25 09:38 | 23.09874 | -148.06351 | 31090 ft | 515 kts | 63° |
| 2026-04-25 09:39 | 23.12965 | -147.99325 | 31091 ft | 515 kts | 63° |
| 2026-04-25 09:39 | 23.16056 | -147.92288 | 31086 ft | 515 kts | 63° |
| 2026-04-25 09:40 | 23.20662 | -147.81783 | 31090 ft | 514 kts | 63° |
| 2026-04-25 09:40 | 23.23738 | -147.74756 | 31093 ft | 514 kts | 63° |
| 2026-04-25 09:41 | 23.26805 | -147.67736 | 31087 ft | 514 kts | 63° |
| 2026-04-25 09:41 | 23.29851 | -147.60756 | 31088 ft | 513 kts | 63° |
| 2026-04-25 09:42 | 23.32913 | -147.53728 | 31090 ft | 513 kts | 63° |
| 2026-04-25 09:42 | 23.35968 | -147.46706 | 31089 ft | 513 kts | 63° |
| 2026-04-25 09:43 | 23.39016 | -147.39690 | 31091 ft | 513 kts | 63° |
| 2026-04-25 09:43 | 23.42065 | -147.32662 | 31095 ft | 513 kts | 63° |
| 2026-04-25 09:44 | 23.45110 | -147.25632 | 31095 ft | 513 kts | 63° |
| 2026-04-25 09:44 | 23.48156 | -147.18588 | 31093 ft | 513 kts | 63° |
| 2026-04-25 09:45 | 23.51192 | -147.11558 | 31094 ft | 513 kts | 63° |
| 2026-04-25 09:45 | 23.54209 | -147.04561 | 31094 ft | 513 kts | 63° |
| 2026-04-25 09:46 | 23.57241 | -146.97518 | 31096 ft | 513 kts | 63° |
| 2026-04-25 09:46 | 23.60274 | -146.90464 | 31096 ft | 514 kts | 63° |
| 2026-04-25 09:47 | 23.63305 | -146.83401 | 31096 ft | 514 kts | 63° |
| 2026-04-25 09:47 | 23.66335 | -146.76332 | 31097 ft | 514 kts | 63° |
| 2026-04-25 09:48 | 23.69343 | -146.69303 | 31099 ft | 514 kts | 63° |
| 2026-04-25 09:48 | 23.72365 | -146.62229 | 31102 ft | 515 kts | 63° |
| 2026-04-25 09:49 | 23.75406 | -146.55105 | 31100 ft | 515 kts | 63° |
| 2026-04-25 09:49 | 23.78426 | -146.48013 | 31100 ft | 515 kts | 63° |
| 2026-04-25 09:50 | 23.81432 | -146.40946 | 31102 ft | 515 kts | 63° |
| 2026-04-25 09:50 | 23.84446 | -146.33848 | 31102 ft | 515 kts | 63° |
| 2026-04-25 09:51 | 23.87463 | -146.26734 | 31101 ft | 516 kts | 63° |
| 2026-04-25 09:51 | 23.89965 | -146.20825 | 31104 ft | 516 kts | 63° |
| 2026-04-25 09:52 | 23.92979 | -146.13695 | 31104 ft | 516 kts | 63° |
| 2026-04-25 09:52 | 23.95989 | -146.06566 | 31105 ft | 516 kts | 63° |
| 2026-04-25 09:53 | 23.98998 | -145.99426 | 31104 ft | 516 kts | 63° |
| 2026-04-25 09:53 | 24.01987 | -145.92325 | 31106 ft | 516 kts | 63° |
| 2026-04-25 09:54 | 24.04988 | -145.85182 | 31105 ft | 516 kts | 63° |
| 2026-04-25 09:54 | 24.07993 | -145.78019 | 31106 ft | 517 kts | 63° |
| 2026-04-25 09:55 | 24.10971 | -145.70910 | 31105 ft | 517 kts | 63° |
| 2026-04-25 09:55 | 24.13965 | -145.63751 | 31109 ft | 517 kts | 63° |
| 2026-04-25 09:56 | 24.16956 | -145.56587 | 31110 ft | 517 kts | 63° |
| 2026-04-25 09:56 | 24.19944 | -145.49420 | 31108 ft | 516 kts | 63° |
| 2026-04-25 09:57 | 24.22924 | -145.42260 | 31109 ft | 517 kts | 63° |
| 2026-04-25 09:57 | 24.25902 | -145.35093 | 31111 ft | 517 kts | 63° |
| 2026-04-25 09:58 | 24.28858 | -145.27968 | 31111 ft | 517 kts | 63° |
| 2026-04-25 09:58 | 24.31831 | -145.20790 | 31112 ft | 517 kts | 63° |
| 2026-04-25 09:59 | 24.34804 | -145.13603 | 31116 ft | 516 kts | 63° |
| 2026-04-25 09:59 | 24.37768 | -145.06425 | 31116 ft | 516 kts | 63° |
| 2026-04-25 10:00 | 24.40730 | -144.99235 | 31118 ft | 516 kts | 63° |
| 2026-04-25 10:00 | 24.43676 | -144.92093 | 31117 ft | 517 kts | 63° |
| 2026-04-25 10:01 | 24.46636 | -144.84904 | 31115 ft | 517 kts | 63° |
| 2026-04-25 10:01 | 24.49596 | -144.77703 | 31117 ft | 517 kts | 63° |
| 2026-04-25 10:02 | 24.52552 | -144.70501 | 31119 ft | 518 kts | 63° |
| 2026-04-25 10:02 | 24.55507 | -144.63290 | 31119 ft | 517 kts | 63° |
| 2026-04-25 10:03 | 24.58440 | -144.56120 | 31123 ft | 518 kts | 63° |
| 2026-04-25 10:03 | 24.61383 | -144.48913 | 31116 ft | 518 kts | 63° |
| 2026-04-25 10:04 | 24.64335 | -144.41674 | 31120 ft | 518 kts | 63° |
| 2026-04-25 10:04 | 24.67282 | -144.34433 | 31118 ft | 518 kts | 63° |
| 2026-04-25 10:05 | 24.70224 | -144.27193 | 31119 ft | 519 kts | 63° |
| 2026-04-25 10:05 | 24.73172 | -144.19927 | 31123 ft | 519 kts | 63° |
| 2026-04-25 10:06 | 24.76118 | -144.12654 | 31128 ft | 520 kts | 63° |
| 2026-04-25 10:06 | 24.79042 | -144.05421 | 31125 ft | 521 kts | 63° |
| 2026-04-25 10:07 | 24.81985 | -143.98132 | 31123 ft | 521 kts | 64° |
| 2026-04-25 10:07 | 24.84927 | -143.90831 | 31120 ft | 521 kts | 64° |
| 2026-04-25 10:08 | 24.87868 | -143.83523 | 31125 ft | 522 kts | 64° |
| 2026-04-25 10:08 | 24.90807 | -143.76204 | 31132 ft | 522 kts | 64° |
| 2026-04-25 10:09 | 24.93728 | -143.68922 | 31121 ft | 523 kts | 64° |
| 2026-04-25 10:09 | 24.96663 | -143.61587 | 31128 ft | 523 kts | 64° |
| 2026-04-25 10:10 | 24.99602 | -143.54235 | 31128 ft | 524 kts | 64° |
| 2026-04-25 10:10 | 25.02538 | -143.46876 | 31123 ft | 524 kts | 64° |
| 2026-04-25 10:11 | 25.05472 | -143.39508 | 31121 ft | 525 kts | 64° |
| 2026-04-25 10:11 | 25.08405 | -143.32130 | 31134 ft | 525 kts | 64° |
| 2026-04-25 10:12 | 25.11319 | -143.24788 | 31129 ft | 526 kts | 64° |
| 2026-04-25 10:13 | 25.15715 | -143.13688 | 31129 ft | 526 kts | 64° |
| 2026-04-25 10:13 | 25.18647 | -143.06269 | 31129 ft | 527 kts | 64° |
| 2026-04-25 10:14 | 25.21576 | -142.98844 | 31133 ft | 527 kts | 64° |
| 2026-04-25 10:14 | 25.24503 | -142.91411 | 31127 ft | 528 kts | 64° |
| 2026-04-25 10:15 | 25.27407 | -142.84023 | 31132 ft | 528 kts | 64° |
| 2026-04-25 10:15 | 25.30334 | -142.76565 | 31130 ft | 529 kts | 64° |
| 2026-04-25 10:16 | 25.33258 | -142.69101 | 31135 ft | 529 kts | 64° |
| 2026-04-25 10:16 | 25.36178 | -142.61631 | 31133 ft | 529 kts | 64° |
| 2026-04-25 10:17 | 25.39099 | -142.54149 | 31132 ft | 530 kts | 64° |
| 2026-04-25 10:17 | 25.42003 | -142.46696 | 31133 ft | 531 kts | 64° |
| 2026-04-25 10:18 | 25.44923 | -142.39190 | 31135 ft | 532 kts | 64° |
| 2026-04-25 10:18 | 25.47845 | -142.31663 | 31132 ft | 532 kts | 64° |
| 2026-04-25 10:19 | 25.50768 | -142.24122 | 31136 ft | 532 kts | 65° |
| 2026-04-25 10:19 | 25.53686 | -142.16579 | 31130 ft | 533 kts | 65° |
| 2026-04-25 10:20 | 25.56583 | -142.09075 | 31131 ft | 533 kts | 65° |
| 2026-04-25 10:20 | 25.59507 | -142.01489 | 31135 ft | 534 kts | 65° |
| 2026-04-25 10:21 | 25.62423 | -141.93911 | 31132 ft | 534 kts | 65° |
| 2026-04-25 10:21 | 25.65336 | -141.86327 | 31133 ft | 535 kts | 65° |
| 2026-04-25 10:22 | 25.68227 | -141.78786 | 31136 ft | 535 kts | 65° |
| 2026-04-25 10:22 | 25.71140 | -141.71173 | 31136 ft | 535 kts | 65° |
| 2026-04-25 10:23 | 25.74050 | -141.63552 | 31132 ft | 536 kts | 65° |
| 2026-04-25 10:23 | 25.76939 | -141.55974 | 31130 ft | 536 kts | 65° |
| 2026-04-25 10:24 | 25.79842 | -141.48345 | 31132 ft | 536 kts | 65° |
| 2026-04-25 10:24 | 25.82728 | -141.40747 | 31133 ft | 537 kts | 65° |
| 2026-04-25 10:25 | 25.85628 | -141.33099 | 31147 ft | 537 kts | 65° |
| 2026-04-25 10:25 | 25.88519 | -141.25458 | 31136 ft | 536 kts | 65° |
| 2026-04-25 10:26 | 25.91404 | -141.17820 | 31131 ft | 536 kts | 65° |
| 2026-04-25 10:26 | 25.94286 | -141.10174 | 31128 ft | 536 kts | 65° |
| 2026-04-25 10:27 | 25.97149 | -141.02567 | 31133 ft | 536 kts | 65° |
| 2026-04-25 10:27 | 26.00029 | -140.94898 | 31131 ft | 537 kts | 66° |
| 2026-04-25 10:28 | 26.02903 | -140.87230 | 31132 ft | 537 kts | 66° |
| 2026-04-25 10:28 | 26.05775 | -140.79556 | 31132 ft | 537 kts | 66° |
| 2026-04-25 10:29 | 26.08642 | -140.71878 | 31134 ft | 537 kts | 66° |
| 2026-04-25 10:29 | 26.11490 | -140.64236 | 31129 ft | 537 kts | 66° |
| 2026-04-25 10:30 | 26.14348 | -140.56555 | 31135 ft | 537 kts | 66° |
| 2026-04-25 10:30 | 26.17198 | -140.48878 | 31132 ft | 537 kts | 66° |
| 2026-04-25 10:31 | 26.20049 | -140.41186 | 31134 ft | 537 kts | 66° |
| 2026-04-25 10:31 | 26.22899 | -140.33481 | 31131 ft | 537 kts | 66° |
| 2026-04-25 10:32 | 26.25722 | -140.25832 | 31132 ft | 537 kts | 66° |
| 2026-04-25 10:32 | 26.28563 | -140.18123 | 31129 ft | 537 kts | 66° |
| 2026-04-25 10:33 | 26.31393 | -140.10428 | 31131 ft | 536 kts | 66° |
| 2026-04-25 10:33 | 26.34219 | -140.02727 | 31129 ft | 536 kts | 66° |
| 2026-04-25 10:34 | 26.37042 | -139.95022 | 31133 ft | 537 kts | 66° |
| 2026-04-25 10:34 | 26.39846 | -139.87353 | 31132 ft | 537 kts | 66° |
| 2026-04-25 10:35 | 26.42667 | -139.79619 | 31129 ft | 537 kts | 66° |
| 2026-04-25 10:35 | 26.45484 | -139.71884 | 31127 ft | 538 kts | 66° |
| 2026-04-25 10:36 | 26.48299 | -139.64138 | 31131 ft | 538 kts | 66° |
| 2026-04-25 10:36 | 26.51095 | -139.56432 | 31132 ft | 539 kts | 66° |
| 2026-04-25 10:37 | 26.53906 | -139.48668 | 31135 ft | 539 kts | 66° |
| 2026-04-25 10:37 | 26.56720 | -139.40879 | 31134 ft | 541 kts | 66° |
| 2026-04-25 10:38 | 26.59534 | -139.33074 | 31130 ft | 541 kts | 66° |
| 2026-04-25 10:38 | 26.62345 | -139.25264 | 31123 ft | 542 kts | 66° |
| 2026-04-25 10:39 | 26.65134 | -139.17498 | 31129 ft | 542 kts | 66° |
| 2026-04-25 10:39 | 26.67942 | -139.09662 | 31129 ft | 543 kts | 66° |
| 2026-04-25 10:39 | 26.69329 | -139.05759 | 31105 ft | 531 kts | 65° |
| 2026-04-25 10:40 | 26.70706 | -139.01938 | 31117 ft | 527 kts | 65° |
| 2026-04-25 10:40 | 26.73432 | -138.94305 | 31130 ft | 527 kts | 65° |
| 2026-04-25 10:41 | 26.75689 | -138.87969 | 31132 ft | 528 kts | 65° |
| 2026-04-25 10:41 | 26.78841 | -138.79103 | 31130 ft | 527 kts | 65° |
| 2026-04-25 10:42 | 26.81553 | -138.71463 | 31137 ft | 528 kts | 65° |
| 2026-04-25 10:42 | 26.84258 | -138.63822 | 31127 ft | 527 kts | 65° |
| 2026-04-25 10:43 | 26.86503 | -138.57475 | 31127 ft | 527 kts | 65° |
| 2026-04-25 10:43 | 26.89204 | -138.49819 | 31127 ft | 528 kts | 65° |
| 2026-04-25 10:44 | 26.91898 | -138.42168 | 31126 ft | 528 kts | 65° |
| 2026-04-25 10:44 | 26.94589 | -138.34514 | 31126 ft | 528 kts | 65° |
| 2026-04-25 10:45 | 26.97277 | -138.26849 | 31130 ft | 528 kts | 65° |
| 2026-04-25 10:45 | 26.99961 | -138.19177 | 31132 ft | 528 kts | 65° |
| 2026-04-25 10:46 | 27.02619 | -138.11548 | 31130 ft | 528 kts | 65° |
| 2026-04-25 10:46 | 27.05280 | -138.03897 | 31129 ft | 529 kts | 65° |
| 2026-04-25 10:47 | 27.07951 | -137.96196 | 31130 ft | 529 kts | 65° |
| 2026-04-25 10:47 | 27.10615 | -137.88504 | 31126 ft | 529 kts | 65° |
| 2026-04-25 10:48 | 27.13280 | -137.80792 | 31127 ft | 529 kts | 65° |
| 2026-04-25 10:48 | 27.15942 | -137.73072 | 31127 ft | 530 kts | 65° |
| 2026-04-25 10:49 | 27.18590 | -137.65376 | 31129 ft | 530 kts | 65° |
| 2026-04-25 10:49 | 27.21245 | -137.57646 | 31128 ft | 530 kts | 65° |
| 2026-04-25 10:50 | 27.23901 | -137.49895 | 31131 ft | 531 kts | 65° |
| 2026-04-25 10:50 | 27.26536 | -137.42192 | 31127 ft | 532 kts | 65° |
| 2026-04-25 10:51 | 27.29186 | -137.34427 | 31128 ft | 532 kts | 65° |
| 2026-04-25 10:51 | 27.31834 | -137.26650 | 31124 ft | 533 kts | 65° |
| 2026-04-25 10:52 | 27.34480 | -137.18865 | 31125 ft | 533 kts | 65° |
| 2026-04-25 10:52 | 27.37125 | -137.11067 | 31125 ft | 534 kts | 65° |
| 2026-04-25 10:53 | 27.39769 | -137.03253 | 31125 ft | 534 kts | 65° |
| 2026-04-25 10:53 | 27.42396 | -136.95473 | 31121 ft | 535 kts | 65° |
| 2026-04-25 10:54 | 27.45034 | -136.87644 | 31122 ft | 535 kts | 65° |
| 2026-04-25 10:54 | 27.47674 | -136.79796 | 31124 ft | 536 kts | 65° |
| 2026-04-25 10:55 | 27.50295 | -136.71981 | 31119 ft | 536 kts | 65° |
| 2026-04-25 10:55 | 27.52930 | -136.64113 | 31117 ft | 537 kts | 65° |
| 2026-04-25 10:56 | 27.55545 | -136.56285 | 31117 ft | 537 kts | 65° |
| 2026-04-25 10:56 | 27.58176 | -136.48394 | 31121 ft | 538 kts | 65° |
| 2026-04-25 10:57 | 27.60805 | -136.40491 | 31124 ft | 539 kts | 65° |
| 2026-04-25 10:57 | 27.63431 | -136.32578 | 31115 ft | 539 kts | 65° |
| 2026-04-25 10:58 | 27.66060 | -136.24641 | 31119 ft | 539 kts | 65° |
| 2026-04-25 10:58 | 27.68669 | -136.16746 | 31118 ft | 540 kts | 65° |
| 2026-04-25 10:59 | 27.71289 | -136.08800 | 31121 ft | 540 kts | 65° |
| 2026-04-25 10:59 | 27.73906 | -136.00845 | 31118 ft | 541 kts | 65° |
| 2026-04-25 11:00 | 27.76525 | -135.92867 | 31119 ft | 541 kts | 65° |
| 2026-04-25 11:00 | 27.79122 | -135.84942 | 31116 ft | 541 kts | 65° |
| 2026-04-25 11:01 | 27.81731 | -135.76956 | 31115 ft | 542 kts | 65° |
| 2026-04-25 11:01 | 27.84337 | -135.68967 | 31110 ft | 542 kts | 65° |
| 2026-04-25 11:02 | 27.86942 | -135.60960 | 31111 ft | 542 kts | 65° |
| 2026-04-25 11:02 | 27.89540 | -135.52956 | 31114 ft | 542 kts | 65° |
| 2026-04-25 11:03 | 27.92122 | -135.44983 | 31122 ft | 543 kts | 65° |
| 2026-04-25 11:03 | 27.94715 | -135.36961 | 31119 ft | 543 kts | 65° |
| 2026-04-25 11:04 | 27.97305 | -135.28928 | 31114 ft | 543 kts | 65° |
| 2026-04-25 11:04 | 27.99894 | -135.20880 | 31114 ft | 544 kts | 64° |
| 2026-04-25 11:05 | 28.02479 | -135.12825 | 31111 ft | 545 kts | 65° |
| 2026-04-25 11:05 | 28.05064 | -135.04753 | 31116 ft | 545 kts | 65° |
| 2026-04-25 11:06 | 28.07633 | -134.96712 | 31121 ft | 546 kts | 65° |
| 2026-04-25 11:06 | 28.10217 | -134.88605 | 31121 ft | 547 kts | 65° |
| 2026-04-25 11:07 | 28.12799 | -134.80484 | 31122 ft | 548 kts | 65° |
| 2026-04-25 11:07 | 28.15381 | -134.72347 | 31129 ft | 549 kts | 65° |
| 2026-04-25 11:08 | 28.17961 | -134.64196 | 31119 ft | 550 kts | 65° |
| 2026-04-25 11:08 | 28.20544 | -134.56016 | 31119 ft | 551 kts | 65° |
| 2026-04-25 11:09 | 28.23097 | -134.47913 | 31117 ft | 552 kts | 65° |
| 2026-04-25 11:09 | 28.25677 | -134.39703 | 31118 ft | 553 kts | 66° |
| 2026-04-25 11:10 | 28.28258 | -134.31472 | 31122 ft | 554 kts | 66° |
| 2026-04-25 11:10 | 28.30821 | -134.23276 | 31122 ft | 555 kts | 66° |
| 2026-04-25 11:11 | 28.33400 | -134.15009 | 31120 ft | 556 kts | 66° |
| 2026-04-25 11:11 | 28.35983 | -134.06714 | 31121 ft | 557 kts | 66° |
| 2026-04-25 11:12 | 28.38564 | -133.98400 | 31119 ft | 558 kts | 66° |
| 2026-04-25 11:12 | 28.41129 | -133.90120 | 31122 ft | 559 kts | 67° |
| 2026-04-25 11:13 | 28.43706 | -133.81781 | 31116 ft | 560 kts | 67° |
| 2026-04-25 11:13 | 28.46283 | -133.73421 | 31117 ft | 561 kts | 67° |
| 2026-04-25 11:14 | 28.48862 | -133.65033 | 31117 ft | 562 kts | 67° |
| 2026-04-25 11:14 | 28.51436 | -133.56641 | 31115 ft | 563 kts | 68° |
| 2026-04-25 11:15 | 28.54011 | -133.48224 | 31120 ft | 564 kts | 68° |
| 2026-04-25 11:15 | 28.56583 | -133.39796 | 31120 ft | 564 kts | 68° |
| 2026-04-25 11:16 | 28.60436 | -133.27131 | 31117 ft | 565 kts | 68° |
| 2026-04-25 11:16 | 28.62986 | -133.18722 | 31115 ft | 566 kts | 68° |
| 2026-04-25 11:17 | 28.65552 | -133.10240 | 31115 ft | 567 kts | 68° |
| 2026-04-25 11:17 | 28.68120 | -133.01730 | 31118 ft | 568 kts | 68° |
| 2026-04-25 11:18 | 28.70687 | -132.93200 | 31117 ft | 568 kts | 68° |
| 2026-04-25 11:18 | 28.73231 | -132.84723 | 31115 ft | 569 kts | 69° |
| 2026-04-25 11:19 | 28.75790 | -132.76176 | 31114 ft | 569 kts | 69° |
| 2026-04-25 11:19 | 28.78345 | -132.67622 | 31114 ft | 570 kts | 69° |
| 2026-04-25 11:20 | 28.80902 | -132.59038 | 31113 ft | 571 kts | 69° |
| 2026-04-25 11:20 | 28.83458 | -132.50433 | 31114 ft | 572 kts | 69° |
| 2026-04-25 11:21 | 28.85991 | -132.41885 | 31114 ft | 573 kts | 69° |
| 2026-04-25 11:21 | 28.88539 | -132.33263 | 31115 ft | 573 kts | 69° |
| 2026-04-25 11:22 | 28.90671 | -132.26029 | 31111 ft | 574 kts | 69° |
| 2026-04-25 11:22 | 28.93625 | -132.15986 | 31108 ft | 575 kts | 69° |
| 2026-04-25 11:23 | 28.96164 | -132.07323 | 31109 ft | 575 kts | 69° |
| 2026-04-25 11:23 | 28.98703 | -131.98639 | 31111 ft | 576 kts | 70° |
| 2026-04-25 11:24 | 29.01224 | -131.89996 | 31106 ft | 577 kts | 70° |
| 2026-04-25 11:24 | 29.03754 | -131.81293 | 31108 ft | 577 kts | 70° |
| 2026-04-25 11:25 | 29.06286 | -131.72566 | 31111 ft | 578 kts | 70° |
| 2026-04-25 11:25 | 29.08815 | -131.63820 | 31111 ft | 579 kts | 70° |
| 2026-04-25 11:26 | 29.11339 | -131.55070 | 31104 ft | 579 kts | 70° |
| 2026-04-25 11:26 | 29.13841 | -131.46373 | 31109 ft | 580 kts | 70° |
| 2026-04-25 11:27 | 29.16359 | -131.37597 | 31107 ft | 580 kts | 70° |
| 2026-04-25 11:27 | 29.18449 | -131.30293 | 31104 ft | 580 kts | 70° |
| 2026-04-25 11:28 | 29.21383 | -131.20010 | 31105 ft | 581 kts | 70° |
| 2026-04-25 11:28 | 29.23872 | -131.11261 | 31104 ft | 582 kts | 71° |
| 2026-04-25 11:29 | 29.26375 | -131.02438 | 31105 ft | 582 kts | 71° |
| 2026-04-25 11:29 | 29.28874 | -130.93602 | 31101 ft | 583 kts | 71° |
| 2026-04-25 11:30 | 29.31369 | -130.84756 | 31102 ft | 583 kts | 71° |
| 2026-04-25 11:30 | 29.33858 | -130.75905 | 31103 ft | 584 kts | 71° |
| 2026-04-25 11:31 | 29.35925 | -130.68539 | 31101 ft | 584 kts | 71° |
| 2026-04-25 11:31 | 29.38812 | -130.58219 | 31100 ft | 585 kts | 71° |
| 2026-04-25 11:32 | 29.41289 | -130.49333 | 31103 ft | 585 kts | 71° |
| 2026-04-25 11:32 | 29.43349 | -130.41926 | 31104 ft | 586 kts | 71° |
| 2026-04-25 11:33 | 29.45824 | -130.33002 | 31097 ft | 586 kts | 71° |
| 2026-04-25 11:33 | 29.48292 | -130.24080 | 31103 ft | 587 kts | 72° |
| 2026-04-25 11:34 | 29.50760 | -130.15130 | 31104 ft | 587 kts | 72° |
| 2026-04-25 11:34 | 29.53217 | -130.06194 | 31100 ft | 587 kts | 72° |
| 2026-04-25 11:35 | 29.55672 | -129.97241 | 31099 ft | 587 kts | 72° |
| 2026-04-25 11:35 | 29.58108 | -129.88329 | 31104 ft | 588 kts | 72° |
| 2026-04-25 11:36 | 29.60554 | -129.79354 | 31103 ft | 588 kts | 72° |
| 2026-04-25 11:36 | 29.62993 | -129.70379 | 31101 ft | 588 kts | 72° |
| 2026-04-25 11:37 | 29.65432 | -129.61377 | 31095 ft | 589 kts | 72° |
| 2026-04-25 11:37 | 29.67844 | -129.52449 | 31099 ft | 589 kts | 72° |
| 2026-04-25 11:38 | 29.70272 | -129.43436 | 31103 ft | 589 kts | 72° |
| 2026-04-25 11:38 | 29.72691 | -129.34429 | 31097 ft | 589 kts | 73° |
| 2026-04-25 11:39 | 29.75104 | -129.25413 | 31091 ft | 589 kts | 73° |
| 2026-04-25 11:39 | 29.77416 | -129.16752 | 31101 ft | 589 kts | 73° |
| 2026-04-25 11:40 | 29.79819 | -129.07724 | 31101 ft | 589 kts | 73° |
| 2026-04-25 11:40 | 29.82217 | -128.98686 | 31096 ft | 589 kts | 73° |
| 2026-04-25 11:41 | 29.84607 | -128.89655 | 31091 ft | 589 kts | 73° |
| 2026-04-25 11:41 | 29.86974 | -128.80678 | 31098 ft | 589 kts | 73° |
| 2026-04-25 11:42 | 29.89352 | -128.71633 | 31102 ft | 589 kts | 73° |
| 2026-04-25 11:42 | 29.91725 | -128.62579 | 31094 ft | 589 kts | 73° |
| 2026-04-25 11:43 | 29.94090 | -128.53529 | 31096 ft | 589 kts | 73° |
| 2026-04-25 11:43 | 29.96451 | -128.44466 | 31095 ft | 589 kts | 73° |
| 2026-04-25 11:44 | 29.98793 | -128.35448 | 31084 ft | 589 kts | 74° |
| 2026-04-25 11:44 | 30.01141 | -128.26380 | 31086 ft | 589 kts | 74° |
| 2026-04-25 11:45 | 30.03482 | -128.17308 | 31081 ft | 589 kts | 74° |
| 2026-04-25 11:45 | 30.05803 | -128.08289 | 31085 ft | 588 kts | 74° |
| 2026-04-25 11:46 | 30.08126 | -127.99230 | 31092 ft | 588 kts | 74° |
| 2026-04-25 11:46 | 30.10445 | -127.90160 | 31086 ft | 588 kts | 74° |
| 2026-04-25 11:47 | 30.12757 | -127.81088 | 31082 ft | 588 kts | 75° |
| 2026-04-25 11:47 | 30.15062 | -127.72018 | 31085 ft | 588 kts | 75° |
| 2026-04-25 11:48 | 30.17351 | -127.62978 | 31080 ft | 588 kts | 75° |
| 2026-04-25 11:48 | 30.19642 | -127.53901 | 31084 ft | 588 kts | 75° |
| 2026-04-25 11:49 | 30.21928 | -127.44816 | 31087 ft | 588 kts | 75° |
| 2026-04-25 11:49 | 30.24205 | -127.35740 | 31087 ft | 588 kts | 75° |
| 2026-04-25 11:50 | 30.26476 | -127.26657 | 31083 ft | 588 kts | 75° |
| 2026-04-25 11:50 | 30.28739 | -127.17578 | 31084 ft | 587 kts | 75° |
| 2026-04-25 11:51 | 30.30981 | -127.08553 | 31083 ft | 587 kts | 75° |
| 2026-04-25 11:51 | 30.33231 | -126.99465 | 31079 ft | 587 kts | 75° |
| 2026-04-25 11:52 | 30.35475 | -126.90373 | 31078 ft | 586 kts | 76° |
| 2026-04-25 11:52 | 30.37709 | -126.81294 | 31076 ft | 586 kts | 76° |
| 2026-04-25 11:53 | 30.39934 | -126.72220 | 31074 ft | 586 kts | 76° |
| 2026-04-25 11:53 | 30.42153 | -126.63140 | 31072 ft | 585 kts | 76° |
| 2026-04-25 11:54 | 30.44350 | -126.54121 | 31077 ft | 584 kts | 76° |
| 2026-04-25 11:55 | 30.47649 | -126.40523 | 31076 ft | 584 kts | 76° |
| 2026-04-25 11:55 | 30.49841 | -126.31449 | 31070 ft | 583 kts | 76° |
| 2026-04-25 11:56 | 30.51982 | -126.22561 | 31077 ft | 583 kts | 76° |
| 2026-04-25 11:56 | 30.54155 | -126.13505 | 31072 ft | 583 kts | 76° |
| 2026-04-25 11:57 | 30.56327 | -126.04428 | 31073 ft | 582 kts | 76° |
| 2026-04-25 11:57 | 30.58486 | -125.95371 | 31070 ft | 582 kts | 76° |
| 2026-04-25 11:58 | 30.60639 | -125.86308 | 31066 ft | 582 kts | 76° |
| 2026-04-25 11:58 | 30.62772 | -125.77302 | 31069 ft | 582 kts | 76° |
| 2026-04-25 11:59 | 30.64914 | -125.68230 | 31067 ft | 582 kts | 76° |
| 2026-04-25 11:59 | 30.67046 | -125.59166 | 31062 ft | 581 kts | 76° |
| 2026-04-25 12:00 | 30.70231 | -125.45569 | 31062 ft | 580 kts | 76° |
| 2026-04-25 12:01 | 30.73392 | -125.32002 | 31066 ft | 579 kts | 76° |
| 2026-04-25 12:01 | 30.75489 | -125.22965 | 31063 ft | 578 kts | 76° |
| 2026-04-25 12:02 | 30.78604 | -125.09487 | 31056 ft | 577 kts | 77° |
| 2026-04-25 12:02 | 30.80678 | -125.00468 | 31059 ft | 576 kts | 77° |
| 2026-04-25 12:03 | 30.82740 | -124.91476 | 31059 ft | 574 kts | 77° |
| 2026-04-25 12:03 | 30.84793 | -124.82491 | 31061 ft | 573 kts | 77° |
| 2026-04-25 12:04 | 30.86834 | -124.73526 | 31060 ft | 572 kts | 77° |
| 2026-04-25 12:04 | 30.88866 | -124.64574 | 31060 ft | 571 kts | 77° |
| 2026-04-25 12:05 | 30.90875 | -124.55690 | 31059 ft | 570 kts | 77° |
| 2026-04-25 12:05 | 30.92885 | -124.46772 | 31055 ft | 569 kts | 76° |
| 2026-04-25 12:06 | 30.94889 | -124.37849 | 31054 ft | 569 kts | 76° |
| 2026-04-25 12:06 | 30.96885 | -124.28927 | 31054 ft | 568 kts | 76° |
| 2026-04-25 12:07 | 30.98873 | -124.20014 | 31052 ft | 568 kts | 76° |
| 2026-04-25 12:07 | 31.00844 | -124.11148 | 31052 ft | 568 kts | 76° |
| 2026-04-25 12:08 | 31.02822 | -124.02215 | 31052 ft | 568 kts | 76° |
| 2026-04-25 12:08 | 31.04794 | -123.93277 | 31049 ft | 568 kts | 77° |
| 2026-04-25 12:09 | 31.06759 | -123.84343 | 31046 ft | 568 kts | 77° |
| 2026-04-25 12:09 | 31.08717 | -123.75407 | 31047 ft | 568 kts | 77° |
| 2026-04-25 12:10 | 31.10548 | -123.67025 | 31045 ft | 568 kts | 77° |
| 2026-04-25 12:10 | 31.12493 | -123.58203 | 31043 ft | 569 kts | 73° |
| 2026-04-25 12:11 | 31.14060 | -123.53972 | 31063 ft | 569 kts | 58° |
| 2026-04-25 12:11 | 31.16367 | -123.50311 | 31066 ft | 566 kts | 44° |
| 2026-04-25 12:11 | 31.19304 | -123.47286 | 31067 ft | 561 kts | 33° |
| 2026-04-25 12:11 | 31.22462 | -123.44612 | 31053 ft | 560 kts | 31° |
| 2026-04-25 12:12 | 31.27797 | -123.40339 | 31040 ft | 559 kts | 30° |
| 2026-04-25 12:12 | 31.35135 | -123.34023 | 31039 ft | 561 kts | 35° |
| 2026-04-25 12:13 | 31.41214 | -123.28271 | 31037 ft | 561 kts | 36° |
| 2026-04-25 12:13 | 31.47238 | -123.22534 | 31036 ft | 561 kts | 36° |
| 2026-04-25 12:14 | 31.53292 | -123.16759 | 31039 ft | 561 kts | 36° |
| 2026-04-25 12:14 | 31.59347 | -123.10974 | 31039 ft | 560 kts | 36° |
| 2026-04-25 12:15 | 31.65390 | -123.05191 | 31036 ft | 560 kts | 36° |
| 2026-04-25 12:15 | 31.71425 | -122.99406 | 31034 ft | 560 kts | 36° |
| 2026-04-25 12:16 | 31.77455 | -122.93616 | 31033 ft | 559 kts | 36° |
| 2026-04-25 12:16 | 31.83482 | -122.87818 | 31034 ft | 559 kts | 36° |
| 2026-04-25 12:17 | 31.89461 | -122.82057 | 31034 ft | 559 kts | 36° |
| 2026-04-25 12:17 | 31.95473 | -122.76254 | 31030 ft | 559 kts | 36° |
| 2026-04-25 12:18 | 32.01487 | -122.70439 | 31033 ft | 559 kts | 37° |
| 2026-04-25 12:18 | 32.07499 | -122.64616 | 31034 ft | 559 kts | 37° |
| 2026-04-25 12:19 | 32.15492 | -122.56857 | 31032 ft | 558 kts | 37° |
| 2026-04-25 12:20 | 32.21494 | -122.51019 | 31030 ft | 558 kts | 37° |
| 2026-04-25 12:20 | 32.27478 | -122.45189 | 31026 ft | 558 kts | 37° |
| 2026-04-25 12:21 | 32.33435 | -122.39374 | 31028 ft | 558 kts | 37° |
| 2026-04-25 12:21 | 32.39420 | -122.33523 | 31020 ft | 558 kts | 37° |
| 2026-04-25 12:22 | 32.45407 | -122.27658 | 31021 ft | 558 kts | 37° |
| 2026-04-25 12:22 | 32.51353 | -122.21823 | 31018 ft | 557 kts | 37° |
| 2026-04-25 12:23 | 32.57332 | -122.15945 | 31017 ft | 557 kts | 37° |
| 2026-04-25 12:23 | 32.63294 | -122.10075 | 31014 ft | 557 kts | 37° |
| 2026-04-25 12:24 | 32.68738 | -122.03557 | 31027 ft | 561 kts | 56° |
| 2026-04-25 12:24 | 32.72163 | -121.95294 | 31016 ft | 562 kts | 65° |
| 2026-04-25 12:25 | 32.75379 | -121.87025 | 31004 ft | 562 kts | 65° |
| 2026-04-25 12:25 | 32.78652 | -121.78593 | 31004 ft | 562 kts | 65° |
| 2026-04-25 12:26 | 32.81924 | -121.70145 | 31003 ft | 562 kts | 65° |
| 2026-04-25 12:26 | 32.85188 | -121.61694 | 31002 ft | 562 kts | 65° |
| 2026-04-25 12:27 | 32.88449 | -121.53230 | 30998 ft | 563 kts | 65° |
| 2026-04-25 12:27 | 32.91704 | -121.44762 | 30995 ft | 563 kts | 66° |
| 2026-04-25 12:28 | 32.94961 | -121.36268 | 30993 ft | 564 kts | 66° |
| 2026-04-25 12:28 | 32.98193 | -121.27815 | 30991 ft | 564 kts | 66° |
| 2026-04-25 12:29 | 33.01442 | -121.19298 | 30995 ft | 565 kts | 66° |
| 2026-04-25 12:29 | 33.04692 | -121.10758 | 30993 ft | 565 kts | 66° |
| 2026-04-25 12:30 | 33.07829 | -121.02492 | 30990 ft | 566 kts | 66° |
| 2026-04-25 12:30 | 33.11068 | -120.93938 | 30989 ft | 566 kts | 66° |
| 2026-04-25 12:31 | 33.14304 | -120.85369 | 30987 ft | 566 kts | 66° |
| 2026-04-25 12:31 | 33.17516 | -120.76842 | 30982 ft | 567 kts | 66° |
| 2026-04-25 12:32 | 33.20746 | -120.68245 | 30984 ft | 568 kts | 66° |
| 2026-04-25 12:32 | 33.23972 | -120.59638 | 30981 ft | 568 kts | 66° |
| 2026-04-25 12:33 | 33.27194 | -120.51018 | 30982 ft | 568 kts | 66° |
| 2026-04-25 12:33 | 33.30414 | -120.42382 | 30980 ft | 568 kts | 66° |
| 2026-04-25 12:34 | 33.33598 | -120.33821 | 30981 ft | 568 kts | 66° |
| 2026-04-25 12:34 | 33.36757 | -120.25306 | 30972 ft | 569 kts | 66° |
| 2026-04-25 12:35 | 33.39959 | -120.16649 | 30972 ft | 569 kts | 66° |
| 2026-04-25 12:35 | 33.43160 | -120.07975 | 30969 ft | 570 kts | 66° |
| 2026-04-25 12:36 | 33.46341 | -119.99332 | 30970 ft | 570 kts | 66° |
| 2026-04-25 12:36 | 33.49535 | -119.90630 | 30966 ft | 570 kts | 66° |
| 2026-04-25 12:37 | 33.52720 | -119.81929 | 30964 ft | 570 kts | 66° |
| 2026-04-25 12:37 | 33.55903 | -119.73211 | 30964 ft | 570 kts | 66° |
| 2026-04-25 12:38 | 33.59054 | -119.64558 | 30960 ft | 570 kts | 66° |
| 2026-04-25 12:38 | 33.62220 | -119.55843 | 30962 ft | 570 kts | 66° |
| 2026-04-25 12:39 | 33.65381 | -119.47116 | 30962 ft | 570 kts | 66° |
| 2026-04-25 12:39 | 33.68541 | -119.38369 | 30966 ft | 570 kts | 66° |
| 2026-04-25 12:40 | 33.71694 | -119.29619 | 30962 ft | 570 kts | 66° |
| 2026-04-25 12:40 | 33.74818 | -119.20924 | 30961 ft | 570 kts | 66° |
| 2026-04-25 12:41 | 33.77961 | -119.12153 | 30958 ft | 570 kts | 66° |
| 2026-04-25 12:41 | 33.81094 | -119.03388 | 30966 ft | 570 kts | 67° |
| 2026-04-25 12:42 | 33.84218 | -118.94620 | 30983 ft | 570 kts | 67° |
| 2026-04-25 12:42 | 33.87320 | -118.85840 | 30989 ft | 570 kts | 65° |
| 2026-04-25 12:43 | 33.90052 | -118.76951 | 31012 ft | 570 kts | 74° |
| 2026-04-25 12:43 | 33.93499 | -118.63564 | 30954 ft | 570 kts | 62° |
| 2026-04-25 12:44 | 33.97915 | -118.55667 | 30981 ft | 568 kts | 51° |
| 2026-04-25 12:45 | 34.04822 | -118.44133 | 31000 ft | 568 kts | 57° |
| 2026-04-25 12:45 | 34.06580 | -118.39808 | 31030 ft | 569 kts | 71° |
| 2026-04-25 12:45 | 34.07563 | -118.31037 | 30931 ft | 563 kts | 96° |
| 2026-04-25 12:46 | 34.07229 | -118.26104 | 30927 ft | 562 kts | 99° |
| 2026-04-25 12:46 | 34.06561 | -118.19392 | 30924 ft | 561 kts | 101° |
| 2026-04-25 12:47 | 34.05503 | -118.10050 | 30914 ft | 561 kts | 102° |
| 2026-04-25 12:47 | 34.04396 | -118.00716 | 30913 ft | 562 kts | 102° |
| 2026-04-25 12:48 | 34.02951 | -117.91565 | 30924 ft | 553 kts | 116° |
| 2026-04-25 12:48 | 34.01253 | -117.87470 | 30943 ft | 541 kts | 130° |
| 2026-04-25 12:48 | 33.98853 | -117.84072 | 30967 ft | 526 kts | 146° |
| 2026-04-25 12:49 | 33.95921 | -117.81567 | 31020 ft | 509 kts | 161° |
| 2026-04-25 12:49 | 33.92667 | -117.80090 | 30931 ft | 493 kts | 176° |
| 2026-04-25 12:49 | 33.89323 | -117.79734 | 30940 ft | 475 kts | 191° |
| 2026-04-25 12:49 | 33.86153 | -117.80497 | 30956 ft | 459 kts | 207° |
| 2026-04-25 12:50 | 33.83401 | -117.82293 | 30984 ft | 446 kts | 223° |
| 2026-04-25 12:50 | 33.81296 | -117.84956 | 31011 ft | 438 kts | 238° |
| 2026-04-25 12:50 | 33.79999 | -117.88249 | 30918 ft | 437 kts | 255° |
| 2026-04-25 12:50 | 33.79658 | -117.91879 | 30971 ft | 441 kts | 271° |
| 2026-04-25 12:51 | 33.80302 | -117.95499 | 31001 ft | 451 kts | 287° |
| 2026-04-25 12:51 | 33.81875 | -117.98814 | 30912 ft | 467 kts | 303° |
| 2026-04-25 12:51 | 33.84270 | -118.01551 | 30912 ft | 482 kts | 316° |
| 2026-04-25 12:51 | 33.86916 | -118.04009 | 30922 ft | 480 kts | 313° |
| 2026-04-25 12:52 | 33.91653 | -118.09549 | 30926 ft | 469 kts | 302° |
| 2026-04-25 12:52 | 33.94907 | -118.16058 | 30944 ft | 456 kts | 287° |
| 2026-04-25 12:53 | 33.96494 | -118.23346 | 30965 ft | 446 kts | 270° |
| 2026-04-25 12:53 | 33.96257 | -118.30707 | 30993 ft | 442 kts | 262° |
| 2026-04-25 12:54 | 33.95494 | -118.38072 | 31006 ft | 442 kts | 260° |
| 2026-04-25 12:54 | 33.94404 | -118.45344 | 31013 ft | 442 kts | 263° |
| 2026-04-25 12:55 | 33.94540 | -118.49061 | 30977 ft | 450 kts | 279° |
| 2026-04-25 12:55 | 33.95177 | -118.51455 | 31025 ft | 457 kts | 289° |
| 2026-04-25 12:55 | 33.97662 | -118.55726 | 30917 ft | 478 kts | 311° |
| 2026-04-25 12:55 | 34.00407 | -118.58084 | 30940 ft | 495 kts | 326° |
| 2026-04-25 12:56 | 34.03695 | -118.59509 | 30966 ft | 512 kts | 342° |
| 2026-04-25 12:56 | 34.07251 | -118.59871 | 30996 ft | 528 kts | 357° |
| 2026-04-25 12:56 | 34.10909 | -118.59135 | 30992 ft | 542 kts | 11° |
| 2026-04-25 12:56 | 34.14411 | -118.57322 | 30903 ft | 553 kts | 27° |
| 2026-04-25 12:57 | 34.17499 | -118.54520 | 30930 ft | 560 kts | 42° |
| 2026-04-25 12:57 | 34.19994 | -118.50892 | 30949 ft | 565 kts | 57° |
| 2026-04-25 12:57 | 34.21745 | -118.46657 | 30973 ft | 565 kts | 71° |
| 2026-04-25 12:57 | 34.22472 | -118.43469 | 30981 ft | 564 kts | 82° |
| 2026-04-25 12:58 | 34.22768 | -118.39033 | 31005 ft | 560 kts | 96° |
| 2026-04-25 12:58 | 34.22492 | -118.35888 | 31000 ft | 555 kts | 105° |
| 2026-04-25 12:58 | 34.21331 | -118.31398 | 30980 ft | 545 kts | 121° |
| 2026-04-25 12:58 | 34.19397 | -118.27536 | 31016 ft | 532 kts | 135° |
| 2026-04-25 12:59 | 34.16828 | -118.24425 | 30889 ft | 518 kts | 150° |
| 2026-04-25 12:59 | 34.15330 | -118.23201 | 30916 ft | 510 kts | 158° |
| 2026-04-25 12:59 | 34.12418 | -118.21669 | 30942 ft | 495 kts | 172° |
| 2026-04-25 12:59 | 34.09160 | -118.21046 | 30962 ft | 479 kts | 187° |
| 2026-04-25 13:00 | 34.05918 | -118.21521 | 30996 ft | 463 kts | 202° |
| 2026-04-25 13:00 | 34.04893 | -118.21927 | 31006 ft | 459 kts | 207° |
| 2026-04-25 13:00 | 34.00717 | -118.25452 | 30935 ft | 444 kts | 231° |
| 2026-04-25 13:00 | 33.99158 | -118.27875 | 30945 ft | 442 kts | 238° |
| 2026-04-25 13:01 | 33.97864 | -118.30458 | 30956 ft | 441 kts | 243° |
| 2026-04-25 13:01 | 33.96515 | -118.33983 | 30956 ft | 441 kts | 249° |
| 2026-04-25 13:02 | 33.95364 | -118.38379 | 30953 ft | 441 kts | 256° |
| 2026-04-25 13:02 | 33.95127 | -118.39808 | 30953 ft | 442 kts | 261° |
| 2026-04-25 13:03 | 33.95550 | -118.45705 | 31021 ft | 454 kts | 285° |
| 2026-04-25 13:03 | 33.96366 | -118.47911 | 30885 ft | 464 kts | 296° |
| 2026-04-25 13:03 | 33.97714 | -118.50162 | 30932 ft | 474 kts | 307° |
| 2026-04-25 13:04 | 34.00273 | -118.52750 | 30967 ft | 490 kts | 322° |
| 2026-04-25 13:04 | 34.02655 | -118.54147 | 30993 ft | 503 kts | 334° |
| 2026-04-25 13:04 | 34.06124 | -118.55081 | 30933 ft | 521 kts | 349° |
| 2026-04-25 13:04 | 34.09551 | -118.54966 | 30921 ft | 534 kts | 4° |
| 2026-04-25 13:05 | 34.13177 | -118.53766 | 30944 ft | 547 kts | 18° |
| 2026-04-25 13:05 | 34.16482 | -118.51554 | 30972 ft | 555 kts | 33° |
| 2026-04-25 13:05 | 34.19356 | -118.48385 | 31002 ft | 562 kts | 48° |
| 2026-04-25 13:05 | 34.21581 | -118.44481 | 30883 ft | 566 kts | 63° |
| 2026-04-25 13:06 | 34.23006 | -118.40068 | 30925 ft | 565 kts | 77° |
| 2026-04-25 13:06 | 34.23564 | -118.35398 | 30945 ft | 561 kts | 92° |
| 2026-04-25 13:06 | 34.23230 | -118.30744 | 30967 ft | 554 kts | 107° |
| 2026-04-25 13:06 | 34.22179 | -118.26755 | 30986 ft | 545 kts | 120° |
| 2026-04-25 13:07 | 34.20276 | -118.22866 | 31013 ft | 533 kts | 135° |
| 2026-04-25 13:07 | 34.18650 | -118.20678 | 30890 ft | 525 kts | 145° |
| 2026-04-25 13:07 | 34.15950 | -118.18269 | 30924 ft | 509 kts | 159° |
| 2026-04-25 13:07 | 34.12732 | -118.16691 | 30947 ft | 492 kts | 174° |
| 2026-04-25 13:08 | 34.09392 | -118.16224 | 30972 ft | 476 kts | 189° |
| 2026-04-25 13:08 | 34.06185 | -118.16881 | 31006 ft | 461 kts | 205° |
| 2026-04-25 13:08 | 34.03534 | -118.18427 | 30894 ft | 451 kts | 219° |
| 2026-04-25 13:08 | 34.01289 | -118.20936 | 30938 ft | 443 kts | 234° |
| 2026-04-25 13:09 | 33.98148 | -118.27336 | 30949 ft | 441 kts | 246° |
| 2026-04-25 13:09 | 33.96419 | -118.33013 | 30950 ft | 441 kts | 253° |
| 2026-04-25 13:10 | 33.95133 | -118.40031 | 30946 ft | 443 kts | 262° |
| 2026-04-25 13:10 | 33.95182 | -118.43757 | 30970 ft | 449 kts | 276° |
| 2026-04-25 13:10 | 33.96134 | -118.47377 | 31019 ft | 460 kts | 292° |
| 2026-04-25 13:11 | 33.97979 | -118.50597 | 30894 ft | 476 kts | 308° |
| 2026-04-25 13:11 | 34.00598 | -118.53127 | 30932 ft | 492 kts | 323° |
| 2026-04-25 13:11 | 34.03800 | -118.54764 | 30958 ft | 509 kts | 339° |
| 2026-04-25 13:11 | 34.07353 | -118.55362 | 30991 ft | 525 kts | 354° |
| 2026-04-25 13:12 | 34.11036 | -118.54864 | 30934 ft | 540 kts | 8° |
| 2026-04-25 13:12 | 34.14589 | -118.53283 | 30882 ft | 550 kts | 24° |
| 2026-04-25 13:12 | 34.17781 | -118.50693 | 30902 ft | 558 kts | 39° |
| 2026-04-25 13:12 | 34.19610 | -118.48485 | 30919 ft | 562 kts | 49° |
| 2026-04-25 13:13 | 34.22346 | -118.43177 | 30945 ft | 565 kts | 68° |
| 2026-04-25 13:13 | 34.23471 | -118.38646 | 30979 ft | 563 kts | 82° |
| 2026-04-25 13:13 | 34.23715 | -118.33941 | 31009 ft | 558 kts | 97° |
| 2026-04-25 13:13 | 34.23083 | -118.29344 | 30893 ft | 551 kts | 112° |
| 2026-04-25 13:14 | 34.21608 | -118.25134 | 30923 ft | 540 kts | 126° |
| 2026-04-25 13:14 | 34.19427 | -118.21583 | 30946 ft | 526 kts | 141° |
| 2026-04-25 13:14 | 34.15880 | -118.18286 | 30978 ft | 507 kts | 160° |
| 2026-04-25 13:15 | 34.12981 | -118.16893 | 30993 ft | 492 kts | 173° |
| 2026-04-25 13:15 | 34.09644 | -118.16387 | 30910 ft | 477 kts | 189° |
| 2026-04-25 13:15 | 34.06475 | -118.16993 | 30944 ft | 462 kts | 204° |
| 2026-04-25 13:15 | 34.03598 | -118.18680 | 30983 ft | 450 kts | 220° |
| 2026-04-25 13:16 | 34.01372 | -118.21204 | 30967 ft | 444 kts | 233° |
| 2026-04-25 13:16 | 33.99615 | -118.24254 | 30887 ft | 442 kts | 240° |
| 2026-04-25 13:16 | 33.97022 | -118.30965 | 30893 ft | 442 kts | 250° |
| 2026-04-25 13:17 | 33.95391 | -118.38113 | 30886 ft | 443 kts | 258° |
| 2026-04-25 13:17 | 33.95502 | -118.45533 | 30929 ft | 455 kts | 283° |
| 2026-04-25 13:18 | 33.96892 | -118.49004 | 30955 ft | 468 kts | 300° |
| 2026-04-25 13:18 | 33.99095 | -118.51894 | 30996 ft | 484 kts | 315° |
| 2026-04-25 13:18 | 34.02000 | -118.54049 | 30913 ft | 501 kts | 330° |
| 2026-04-25 13:18 | 34.05395 | -118.55240 | 30921 ft | 517 kts | 346° |
| 2026-04-25 13:19 | 34.09045 | -118.55350 | 30957 ft | 532 kts | 1° |
| 2026-04-25 13:19 | 34.12683 | -118.54358 | 30985 ft | 544 kts | 16° |
| 2026-04-25 13:19 | 34.15824 | -118.52523 | 30985 ft | 553 kts | 28° |
| 2026-04-25 13:19 | 34.16945 | -118.51609 | 30884 ft | 557 kts | 35° |
| 2026-04-25 13:20 | 34.20581 | -118.47131 | 30903 ft | 563 kts | 54° |
| 2026-04-25 13:20 | 34.22470 | -118.43032 | 30930 ft | 564 kts | 69° |
| 2026-04-25 13:20 | 34.23555 | -118.38485 | 30959 ft | 562 kts | 83° |
| 2026-04-25 13:20 | 34.23756 | -118.33784 | 30991 ft | 557 kts | 98° |
| 2026-04-25 13:21 | 34.23074 | -118.29220 | 31010 ft | 550 kts | 112° |
| 2026-04-25 13:21 | 34.21585 | -118.25064 | 30902 ft | 540 kts | 127° |
| 2026-04-25 13:21 | 34.19353 | -118.21506 | 30927 ft | 525 kts | 142° |
| 2026-04-25 13:21 | 34.16708 | -118.18911 | 30955 ft | 511 kts | 156° |
| 2026-04-25 13:22 | 34.13628 | -118.17179 | 30976 ft | 495 kts | 171° |
| 2026-04-25 13:22 | 34.10744 | -118.16508 | 30988 ft | 481 kts | 184° |
| 2026-04-25 13:22 | 34.07280 | -118.16832 | 30975 ft | 466 kts | 200° |
| 2026-04-25 13:23 | 34.01931 | -118.20579 | 30992 ft | 445 kts | 231° |
| 2026-04-25 13:23 | 33.98545 | -118.26738 | 30972 ft | 442 kts | 244° |
| 2026-04-25 13:24 | 33.96313 | -118.33630 | 30990 ft | 442 kts | 253° |
| 2026-04-25 13:24 | 33.95160 | -118.39718 | 30995 ft | 444 kts | 261° |
| 2026-04-25 13:24 | 33.95086 | -118.42830 | 31017 ft | 448 kts | 272° |
| 2026-04-25 13:25 | 33.95636 | -118.46054 | 30972 ft | 457 kts | 285° |
| 2026-04-25 13:25 | 33.97145 | -118.49466 | 31017 ft | 470 kts | 301° |
| 2026-04-25 13:25 | 33.99475 | -118.52317 | 30923 ft | 487 kts | 317° |
| 2026-04-25 13:25 | 34.02468 | -118.54345 | 30950 ft | 503 kts | 333° |
| 2026-04-25 13:26 | 34.05908 | -118.55386 | 30980 ft | 519 kts | 348° |
| 2026-04-25 13:26 | 34.09560 | -118.55347 | 31009 ft | 534 kts | 2° |
| 2026-04-25 13:26 | 34.13203 | -118.54222 | 30878 ft | 546 kts | 18° |
| 2026-04-25 13:26 | 34.16563 | -118.52048 | 30901 ft | 554 kts | 32° |
| 2026-04-25 13:27 | 34.19461 | -118.48940 | 30923 ft | 561 kts | 47° |
| 2026-04-25 13:27 | 34.21714 | -118.45082 | 30942 ft | 563 kts | 62° |
| 2026-04-25 13:27 | 34.23184 | -118.40708 | 30971 ft | 563 kts | 76° |
| 2026-04-25 13:27 | 34.23795 | -118.36054 | 31000 ft | 559 kts | 91° |
| 2026-04-25 13:28 | 34.23520 | -118.31394 | 30959 ft | 554 kts | 105° |
| 2026-04-25 13:28 | 34.20456 | -118.23123 | 30929 ft | 532 kts | 135° |
| 2026-04-25 13:28 | 34.17914 | -118.20040 | 30951 ft | 516 kts | 150° |
| 2026-04-25 13:29 | 34.14881 | -118.17864 | 30974 ft | 501 kts | 165° |
| 2026-04-25 13:29 | 34.11590 | -118.16750 | 30997 ft | 484 kts | 180° |
| 2026-04-25 13:29 | 34.08279 | -118.16748 | 30908 ft | 470 kts | 196° |
| 2026-04-25 13:30 | 34.02606 | -118.19952 | 30980 ft | 447 kts | 227° |
| 2026-04-25 13:30 | 34.00591 | -118.22780 | 31000 ft | 444 kts | 236° |
| 2026-04-25 13:31 | 33.96634 | -118.32473 | 30979 ft | 442 kts | 251° |
| 2026-04-25 13:31 | 33.95197 | -118.39415 | 30994 ft | 444 kts | 260° |
| 2026-04-25 13:31 | 33.95100 | -118.43096 | 30973 ft | 450 kts | 272° |
| 2026-04-25 13:32 | 33.95870 | -118.46774 | 30931 ft | 460 kts | 289° |
| 2026-04-25 13:32 | 33.97223 | -118.49578 | 30960 ft | 472 kts | 302° |
| 2026-04-25 13:32 | 33.98814 | -118.51631 | 30983 ft | 483 kts | 313° |
| 2026-04-25 13:32 | 34.01664 | -118.53885 | 31021 ft | 499 kts | 328° |
| 2026-04-25 13:33 | 34.05012 | -118.55208 | 30899 ft | 516 kts | 344° |
| 2026-04-25 13:33 | 34.10203 | -118.55225 | 30952 ft | 536 kts | 5° |
| 2026-04-25 13:34 | 34.16804 | -118.51827 | 30993 ft | 555 kts | 34° |
| 2026-04-25 13:34 | 34.19912 | -118.48298 | 30990 ft | 561 kts | 50° |
| 2026-04-25 13:34 | 34.22036 | -118.44336 | 30986 ft | 564 kts | 64° |
| 2026-04-25 13:35 | 34.23365 | -118.39926 | 30907 ft | 562 kts | 79° |
| 2026-04-25 13:35 | 34.23828 | -118.35447 | 30938 ft | 558 kts | 93° |
| 2026-04-25 13:35 | 34.23438 | -118.30816 | 30958 ft | 551 kts | 108° |
| 2026-04-25 13:35 | 34.22189 | -118.26484 | 30981 ft | 541 kts | 122° |
| 2026-04-25 13:36 | 34.20170 | -118.22713 | 31002 ft | 529 kts | 137° |
| 2026-04-25 13:36 | 34.17536 | -118.19719 | 30905 ft | 515 kts | 152° |
| 2026-04-25 13:36 | 34.14449 | -118.17684 | 30932 ft | 498 kts | 167° |
| 2026-04-25 13:36 | 34.11349 | -118.16756 | 30958 ft | 483 kts | 181° |
| 2026-04-25 13:37 | 34.08083 | -118.16851 | 30990 ft | 468 kts | 197° |
| 2026-04-25 13:37 | 34.03592 | -118.19067 | 30922 ft | 451 kts | 220° |
| 2026-04-25 13:37 | 34.01385 | -118.21622 | 30957 ft | 445 kts | 233° |
| 2026-04-25 13:38 | 34.00132 | -118.23666 | 30961 ft | 444 kts | 238° |
| 2026-04-25 13:38 | 33.97488 | -118.29735 | 30971 ft | 443 kts | 248° |
| 2026-04-25 13:39 | 33.96137 | -118.34437 | 30973 ft | 443 kts | 253° |
| 2026-04-25 13:39 | 33.95042 | -118.41614 | 30986 ft | 447 kts | 268° |
| 2026-04-25 13:39 | 33.95413 | -118.45029 | 31020 ft | 455 kts | 282° |
| 2026-04-25 13:40 | 33.96712 | -118.48556 | 30899 ft | 469 kts | 298° |
| 2026-04-25 13:40 | 33.98843 | -118.51529 | 30934 ft | 484 kts | 313° |
| 2026-04-25 13:40 | 34.01700 | -118.53781 | 30961 ft | 500 kts | 329° |
| 2026-04-25 13:40 | 34.05054 | -118.55080 | 30994 ft | 516 kts | 344° |
| 2026-04-25 13:41 | 34.08680 | -118.55327 | 30928 ft | 531 kts | 359° |
| 2026-04-25 13:41 | 34.12341 | -118.54475 | 30890 ft | 543 kts | 14° |
| 2026-04-25 13:41 | 34.15797 | -118.52553 | 30910 ft | 552 kts | 29° |
| 2026-04-25 13:41 | 34.18826 | -118.49674 | 30935 ft | 559 kts | 44° |
| 2026-04-25 13:42 | 34.21256 | -118.45992 | 30951 ft | 562 kts | 58° |
| 2026-04-25 13:42 | 34.22930 | -118.41731 | 30980 ft | 562 kts | 73° |
| 2026-04-25 13:42 | 34.23760 | -118.37131 | 31015 ft | 559 kts | 87° |
| 2026-04-25 13:42 | 34.23715 | -118.32459 | 30928 ft | 554 kts | 102° |
| 2026-04-25 13:43 | 34.22785 | -118.27985 | 30948 ft | 544 kts | 117° |
| 2026-04-25 13:43 | 34.21054 | -118.23993 | 30958 ft | 533 kts | 131° |
| 2026-04-25 13:43 | 34.18629 | -118.20689 | 30981 ft | 519 kts | 146° |
| 2026-04-25 13:43 | 34.15691 | -118.18291 | 31012 ft | 503 kts | 161° |
| 2026-04-25 13:44 | 34.12453 | -118.16919 | 30918 ft | 488 kts | 176° |
| 2026-04-25 13:44 | 34.09124 | -118.16667 | 30944 ft | 472 kts | 192° |
| 2026-04-25 13:44 | 34.05973 | -118.17532 | 30975 ft | 459 kts | 207° |
| 2026-04-25 13:44 | 34.03251 | -118.19418 | 31014 ft | 449 kts | 223° |
| 2026-04-25 13:45 | 34.01100 | -118.22111 | 30915 ft | 445 kts | 234° |
| 2026-04-25 13:45 | 33.97969 | -118.28453 | 30924 ft | 443 kts | 246° |
| 2026-04-25 13:46 | 33.95910 | -118.35459 | 30926 ft | 444 kts | 254° |
| 2026-04-25 13:46 | 33.95079 | -118.42839 | 30945 ft | 450 kts | 272° |
| 2026-04-25 13:46 | 33.95790 | -118.46530 | 30977 ft | 460 kts | 288° |
| 2026-04-25 13:47 | 33.96642 | -118.48560 | 30993 ft | 468 kts | 297° |
| 2026-04-25 13:47 | 33.98765 | -118.51601 | 30972 ft | 484 kts | 312° |
| 2026-04-25 13:47 | 34.01593 | -118.53898 | 30907 ft | 500 kts | 328° |
| 2026-04-25 13:47 | 34.04916 | -118.55240 | 30939 ft | 515 kts | 343° |
| 2026-04-25 13:48 | 34.08552 | -118.55530 | 30976 ft | 530 kts | 359° |
| 2026-04-25 13:48 | 34.12213 | -118.54715 | 31004 ft | 542 kts | 13° |
| 2026-04-25 13:48 | 34.15568 | -118.52932 | 30881 ft | 552 kts | 28° |
| 2026-04-25 13:48 | 34.18640 | -118.50123 | 30905 ft | 558 kts | 43° |
| 2026-04-25 13:49 | 34.20202 | -118.48046 | 30929 ft | 560 kts | 51° |
| 2026-04-25 13:49 | 34.22301 | -118.43910 | 30964 ft | 562 kts | 66° |
| 2026-04-25 13:49 | 34.23393 | -118.40116 | 30992 ft | 561 kts | 79° |
| 2026-04-25 13:50 | 34.23867 | -118.35468 | 31014 ft | 557 kts | 93° |
| 2026-04-25 13:50 | 34.23475 | -118.30905 | 30919 ft | 550 kts | 108° |
| 2026-04-25 13:50 | 34.22221 | -118.26594 | 30940 ft | 539 kts | 122° |
| 2026-04-25 13:50 | 34.20199 | -118.22846 | 30944 ft | 527 kts | 137° |
| 2026-04-25 13:51 | 34.17548 | -118.19885 | 30967 ft | 512 kts | 152° |
| 2026-04-25 13:51 | 34.14458 | -118.17890 | 30995 ft | 496 kts | 167° |
| 2026-04-25 13:51 | 34.11154 | -118.16967 | 30936 ft | 482 kts | 182° |
| 2026-04-25 13:52 | 34.06805 | -118.17493 | 30961 ft | 462 kts | 203° |
| 2026-04-25 13:52 | 34.04249 | -118.18898 | 30991 ft | 452 kts | 217° |
| 2026-04-25 13:52 | 34.01962 | -118.21238 | 30997 ft | 446 kts | 230° |
| 2026-04-25 13:53 | 33.98558 | -118.27239 | 30924 ft | 444 kts | 243° |
| 2026-04-25 13:53 | 33.96656 | -118.32607 | 30937 ft | 444 kts | 250° |
| 2026-04-25 13:54 | 33.95817 | -118.35936 | 30952 ft | 445 kts | 254° |
| 2026-04-25 13:54 | 33.95038 | -118.41429 | 30970 ft | 448 kts | 268° |
| 2026-04-25 13:54 | 33.95447 | -118.45172 | 31007 ft | 457 kts | 283° |
| 2026-04-25 13:55 | 33.96249 | -118.47594 | 30938 ft | 466 kts | 293° |
| 2026-04-25 13:55 | 33.98150 | -118.50758 | 30911 ft | 480 kts | 309° |
| 2026-04-25 13:55 | 34.00830 | -118.53267 | 30946 ft | 496 kts | 324° |
| 2026-04-25 13:55 | 34.04069 | -118.54866 | 30974 ft | 512 kts | 340° |
| 2026-04-25 13:56 | 34.07638 | -118.55423 | 31012 ft | 527 kts | 355° |
| 2026-04-25 13:56 | 34.11317 | -118.54901 | 30876 ft | 540 kts | 10° |
| 2026-04-25 13:56 | 34.14854 | -118.53286 | 30912 ft | 549 kts | 25° |
| 2026-04-25 13:56 | 34.18032 | -118.50670 | 30936 ft | 557 kts | 39° |
| 2026-04-25 13:57 | 34.20648 | -118.47208 | 30959 ft | 561 kts | 54° |
| 2026-04-25 13:57 | 34.23626 | -118.38571 | 31011 ft | 560 kts | 83° |
| 2026-04-25 13:57 | 34.23830 | -118.33908 | 30946 ft | 554 kts | 98° |
| 2026-04-25 13:58 | 34.23140 | -118.29355 | 30971 ft | 546 kts | 113° |
| 2026-04-25 13:58 | 34.21644 | -118.25263 | 30983 ft | 535 kts | 127° |
| 2026-04-25 13:58 | 34.19411 | -118.21759 | 30998 ft | 521 kts | 142° |
| 2026-04-25 13:58 | 34.16599 | -118.19085 | 30927 ft | 508 kts | 157° |
| 2026-04-25 13:59 | 34.13415 | -118.17425 | 30927 ft | 491 kts | 172° |
| 2026-04-25 13:59 | 34.10094 | -118.16873 | 30953 ft | 476 kts | 187° |
| 2026-04-25 13:59 | 34.06879 | -118.17444 | 30983 ft | 462 kts | 203° |
| 2026-04-25 13:59 | 34.04015 | -118.19071 | 30982 ft | 452 kts | 218° |
| 2026-04-25 14:00 | 34.01700 | -118.21583 | 30912 ft | 446 kts | 231° |
| 2026-04-25 14:00 | 33.98317 | -118.27809 | 30922 ft | 444 kts | 244° |
| 2026-04-25 14:01 | 33.96102 | -118.34717 | 30927 ft | 445 kts | 253° |
| 2026-04-25 14:01 | 33.95043 | -118.42062 | 30945 ft | 450 kts | 269° |
| 2026-04-25 14:01 | 33.95567 | -118.45794 | 30974 ft | 459 kts | 285° |
| 2026-04-25 14:02 | 33.97031 | -118.49260 | 31032 ft | 472 kts | 301° |
| 2026-04-25 14:02 | 33.99324 | -118.52179 | 30916 ft | 489 kts | 316° |
| 2026-04-25 14:02 | 34.02286 | -118.54289 | 30957 ft | 504 kts | 332° |
| 2026-04-25 14:02 | 34.04560 | -118.55170 | 30976 ft | 515 kts | 342° |
| 2026-04-25 14:03 | 34.09364 | -118.55482 | 31027 ft | 533 kts | 2° |
| 2026-04-25 14:03 | 34.13021 | -118.54457 | 30868 ft | 545 kts | 17° |
| 2026-04-25 14:03 | 34.16419 | -118.52372 | 30907 ft | 553 kts | 31° |
| 2026-04-25 14:03 | 34.19365 | -118.49344 | 30926 ft | 559 kts | 46° |
| 2026-04-25 14:04 | 34.21670 | -118.45559 | 30946 ft | 561 kts | 61° |
| 2026-04-25 14:04 | 34.23187 | -118.41293 | 30972 ft | 561 kts | 75° |
| 2026-04-25 14:04 | 34.23873 | -118.36677 | 30999 ft | 557 kts | 90° |
| 2026-04-25 14:04 | 34.23667 | -118.32039 | 31024 ft | 550 kts | 105° |
| 2026-04-25 14:05 | 34.22602 | -118.27639 | 30926 ft | 541 kts | 119° |
| 2026-04-25 14:05 | 34.20747 | -118.23764 | 30929 ft | 529 kts | 134° |
| 2026-04-25 14:05 | 34.18226 | -118.20624 | 30948 ft | 514 kts | 149° |
| 2026-04-25 14:05 | 34.15221 | -118.18414 | 30967 ft | 499 kts | 164° |
| 2026-04-25 14:06 | 34.11942 | -118.17266 | 31003 ft | 484 kts | 179° |
| 2026-04-25 14:06 | 34.08627 | -118.17229 | 30909 ft | 471 kts | 195° |
| 2026-04-25 14:06 | 34.05546 | -118.18301 | 30947 ft | 457 kts | 210° |
| 2026-04-25 14:06 | 34.02920 | -118.20381 | 30988 ft | 448 kts | 226° |
| 2026-04-25 14:07 | 34.00835 | -118.23147 | 31012 ft | 446 kts | 234° |
| 2026-04-25 14:07 | 33.97699 | -118.29574 | 31023 ft | 445 kts | 246° |
| 2026-04-25 14:08 | 33.95688 | -118.36609 | 31027 ft | 446 kts | 255° |
| 2026-04-25 14:08 | 33.95174 | -118.43998 | 30902 ft | 456 kts | 277° |
| 2026-04-25 14:08 | 33.96185 | -118.47644 | 30946 ft | 467 kts | 293° |
| 2026-04-25 14:09 | 33.98091 | -118.50864 | 30978 ft | 481 kts | 309° |
| 2026-04-25 14:09 | 34.00477 | -118.53194 | 31006 ft | 495 kts | 323° |
| 2026-04-25 14:09 | 34.00526 | -118.53231 | 31007 ft | 495 kts | 323° |
| 2026-04-25 14:10 | 34.05353 | -118.55391 | 31028 ft | 518 kts | 345° |
| 2026-04-25 14:10 | 34.08361 | -118.55616 | 30981 ft | 530 kts | 358° |
| 2026-04-25 14:10 | 34.12149 | -118.54832 | 30989 ft | 542 kts | 13° |
| 2026-04-25 14:10 | 34.14832 | -118.53511 | 31005 ft | 549 kts | 25° |
| 2026-04-25 14:11 | 34.17714 | -118.51226 | 30910 ft | 557 kts | 38° |
| 2026-04-25 14:11 | 34.21527 | -118.45839 | 30934 ft | 560 kts | 60° |
| 2026-04-25 14:11 | 34.23055 | -118.41723 | 30970 ft | 560 kts | 74° |
| 2026-04-25 14:12 | 34.23810 | -118.37145 | 30997 ft | 557 kts | 89° |
| 2026-04-25 14:12 | 34.23682 | -118.32527 | 31021 ft | 550 kts | 103° |
| 2026-04-25 14:12 | 34.22946 | -118.28927 | 30952 ft | 543 kts | 115° |
| 2026-04-25 14:12 | 34.21351 | -118.24987 | 30972 ft | 532 kts | 129° |
| 2026-04-25 14:13 | 34.19191 | -118.21803 | 30982 ft | 519 kts | 143° |